createdAt,value
2019-01-27T00:01:19.351Z,16.73
2019-01-27T00:03:51.168Z,12.55
2019-01-27T00:06:22.805Z,16.37
2019-01-27T00:08:55.412Z,14.95
2019-01-27T00:11:28.418Z,13.40
2019-01-27T00:14:01.500Z,16.90
2019-01-27T00:16:33.969Z,17.07
2019-01-27T00:19:10.233Z,16.25
2019-01-27T00:21:42.811Z,12.85
2019-01-27T00:24:33.396Z,13.53
2019-01-27T00:27:05.099Z,13.75
2019-01-27T00:29:36.842Z,12.55
2019-01-27T00:32:08.591Z,12.65
2019-01-27T00:34:41.038Z,13.20
2019-01-27T00:37:12.863Z,12.93
2019-01-27T00:39:44.528Z,12.43
2019-01-27T00:42:16.752Z,12.35
2019-01-27T00:44:48.603Z,12.65
2019-01-27T00:47:20.339Z,12.20
2019-01-27T00:49:52.981Z,12.37
2019-01-27T00:52:25.032Z,12.30
2019-01-27T00:54:57.264Z,11.60
2019-01-27T00:57:29.460Z,13.00
2019-01-27T01:00:02.527Z,14.87
2019-01-27T01:02:35.408Z,20.25
2019-01-27T01:05:08.347Z,19.65
2019-01-27T01:07:40.514Z,28.15
2019-01-27T01:10:17.817Z,8.25
2019-01-27T01:12:49.720Z,7.00
2019-01-27T01:15:22.118Z,7.53
2019-01-27T01:17:55.698Z,7.37
2019-01-27T01:20:29.904Z,7.83
2019-01-27T01:23:02.313Z,7.67
2019-01-27T01:25:34.180Z,7.50
2019-01-27T01:28:06.113Z,6.83
2019-01-27T01:30:38.062Z,6.35
2019-01-27T01:33:09.761Z,7.05
2019-01-27T01:35:41.644Z,10.32
2019-01-27T01:38:13.446Z,13.15
2019-01-27T01:40:45.409Z,15.13
2019-01-27T01:43:18.866Z,12.85
2019-01-27T01:45:52.489Z,11.63
2019-01-27T01:48:24.303Z,11.80
2019-01-27T01:50:57.313Z,11.73
2019-01-27T01:53:29.288Z,12.73
2019-01-27T01:56:01.111Z,12.68
2019-01-27T01:58:33.769Z,12.68
2019-01-27T02:01:08.074Z,12.78
2019-01-27T02:03:39.732Z,12.70
2019-01-27T02:06:11.633Z,12.45
2019-01-27T02:08:43.588Z,13.40
2019-01-27T02:11:15.484Z,15.40
2019-01-27T02:13:47.481Z,16.35
2019-01-27T02:16:19.041Z,13.78
2019-01-27T02:18:51.466Z,13.03
2019-01-27T02:21:23.064Z,9.00
2019-01-27T02:23:54.925Z,9.08
2019-01-27T02:26:26.558Z,7.97
2019-01-27T02:28:58.767Z,8.68
2019-01-27T02:31:30.604Z,8.58
2019-01-27T02:34:02.419Z,7.80
2019-01-27T02:36:34.126Z,6.97
2019-01-27T02:39:09.416Z,6.97
2019-01-27T02:41:43.136Z,7.28
2019-01-27T02:44:15.059Z,6.72
2019-01-27T02:46:46.536Z,6.17
2019-01-27T02:49:18.530Z,7.70
2019-01-27T02:51:50.268Z,8.70
2019-01-27T02:54:22.048Z,10.00
2019-01-27T02:56:53.555Z,10.58
2019-01-27T02:59:25.239Z,9.55
2019-01-27T03:01:57.033Z,7.85
2019-01-27T03:04:30.147Z,6.72
2019-01-27T03:07:17.470Z,6.80
2019-01-27T03:09:49.527Z,5.70
2019-01-27T03:12:21.242Z,4.42
2019-01-27T03:14:53.038Z,5.37
2019-01-27T03:17:24.939Z,5.60
2019-01-27T03:19:56.929Z,5.78
2019-01-27T03:22:29.638Z,5.20
2019-01-27T03:25:01.463Z,5.85
2019-01-27T03:27:34.219Z,5.78
2019-01-27T03:30:09.678Z,5.50
2019-01-27T03:32:41.341Z,5.55
2019-01-27T03:35:14.303Z,5.42
2019-01-27T03:37:45.883Z,5.47
2019-01-27T03:40:19.036Z,5.45
2019-01-27T03:42:51.312Z,5.25
2019-01-27T03:45:23.701Z,5.55
2019-01-27T03:47:55.380Z,4.50
2019-01-27T03:50:27.155Z,5.35
2019-01-27T03:53:17.664Z,4.75
2019-01-27T03:55:49.349Z,5.53
2019-01-27T03:58:21.230Z,5.35
2019-01-27T04:00:52.934Z,5.33
2019-01-27T04:03:24.565Z,5.40
2019-01-27T04:05:56.170Z,5.65
2019-01-27T04:08:27.717Z,6.10
2019-01-27T04:10:59.151Z,6.90
2019-01-27T04:13:31.612Z,7.22
2019-01-27T04:16:03.425Z,6.97
2019-01-27T04:18:35.129Z,7.28
2019-01-27T04:21:07.021Z,7.45
2019-01-27T04:23:38.644Z,7.05
2019-01-27T04:26:11.203Z,8.05
2019-01-27T04:28:42.978Z,9.90
2019-01-27T04:31:15.004Z,7.30
2019-01-27T04:33:47.304Z,6.55
2019-01-27T04:36:18.984Z,6.83
2019-01-27T04:38:50.607Z,8.03
2019-01-27T04:41:22.515Z,7.30
2019-01-27T04:43:54.189Z,7.78
2019-01-27T04:46:26.056Z,7.17
2019-01-27T04:48:57.603Z,8.08
2019-01-27T04:51:29.311Z,7.10
2019-01-27T04:54:01.246Z,7.55
2019-01-27T04:56:33.251Z,7.42
2019-01-27T04:59:05.640Z,7.30
2019-01-27T05:01:37.256Z,7.50
2019-01-27T05:04:19.152Z,7.00
2019-01-27T05:06:50.907Z,8.25
2019-01-27T05:09:22.467Z,17.15
2019-01-27T05:11:54.100Z,7.55
2019-01-27T05:14:26.094Z,6.87
2019-01-27T05:16:57.714Z,6.33
2019-01-27T05:19:30.949Z,5.80
2019-01-27T05:22:02.638Z,6.15
2019-01-27T05:24:35.619Z,6.22
2019-01-27T05:27:07.503Z,5.97
2019-01-27T05:29:39.585Z,7.30
2019-01-27T05:32:11.371Z,8.05
2019-01-27T05:34:43.216Z,8.78
2019-01-27T05:37:15.080Z,7.97
2019-01-27T05:39:46.712Z,8.90
2019-01-27T05:42:18.357Z,9.50
2019-01-27T05:44:49.912Z,8.80
2019-01-27T05:47:21.658Z,11.03
2019-01-27T05:49:53.484Z,14.38
2019-01-27T05:52:25.122Z,14.93
2019-01-27T05:54:56.789Z,16.57
2019-01-27T05:57:28.348Z,14.60
2019-01-27T05:59:59.911Z,12.80
2019-01-27T06:02:31.714Z,13.45
2019-01-27T06:05:03.664Z,16.12
2019-01-27T06:07:35.561Z,18.62
2019-01-27T06:10:08.648Z,14.20
2019-01-27T06:12:40.428Z,13.18
2019-01-27T06:15:14.584Z,11.75
2019-01-27T06:17:46.447Z,11.08
2019-01-27T06:20:19.582Z,11.22
2019-01-27T06:22:51.395Z,12.37
2019-01-27T06:25:26.040Z,12.37
2019-01-27T06:27:56.518Z,11.70
2019-01-27T06:30:28.909Z,10.30
2019-01-27T06:33:19.369Z,10.35
2019-01-27T06:35:51.084Z,10.68
2019-01-27T06:38:22.606Z,10.23
2019-01-27T06:40:55.565Z,10.20
2019-01-27T06:43:27.310Z,9.45
2019-01-27T06:45:59.211Z,11.22
2019-01-27T06:48:30.954Z,10.35
2019-01-27T06:51:03.242Z,12.82
2019-01-27T06:53:34.841Z,11.80
2019-01-27T06:56:06.761Z,10.50
2019-01-27T06:58:56.185Z,11.12
2019-01-27T07:01:56.000Z,11.65
2019-01-27T07:04:35.426Z,11.95
2019-01-27T07:07:28.480Z,11.12
2019-01-27T07:10:18.629Z,12.07
2019-01-27T07:13:12.034Z,10.98
2019-01-27T07:15:59.412Z,10.80
2019-01-27T07:19:05.285Z,12.05
2019-01-27T07:21:49.314Z,11.80
2019-01-27T07:24:45.678Z,12.43
2019-01-27T07:27:36.696Z,12.58
2019-01-27T07:30:30.122Z,11.88
2019-01-27T07:33:23.423Z,10.82
2019-01-27T07:36:23.165Z,12.18
2019-01-27T07:39:05.966Z,11.48
2019-01-27T07:41:48.519Z,11.70
2019-01-27T07:44:54.447Z,12.20
2019-01-27T07:47:47.573Z,14.40
2019-01-27T07:50:50.349Z,13.45
2019-01-27T07:53:44.952Z,14.30
2019-01-27T07:56:34.309Z,11.95
2019-01-27T07:59:21.833Z,13.45
2019-01-27T08:02:12.523Z,12.05
2019-01-27T08:05:03.006Z,14.40
2019-01-27T08:07:50.643Z,12.43
2019-01-27T08:10:44.098Z,13.48
2019-01-27T08:13:38.275Z,11.33
2019-01-27T08:16:28.847Z,10.73
2019-01-27T08:19:09.845Z,14.30
2019-01-27T08:22:05.058Z,16.30
2019-01-27T08:24:54.313Z,14.83
2019-01-27T08:27:47.576Z,12.23
2019-01-27T08:30:29.481Z,12.60
2019-01-27T08:33:22.724Z,15.68
2019-01-27T08:36:16.315Z,13.55
2019-01-27T08:38:58.824Z,16.65
2019-01-27T08:41:52.785Z,18.05
2019-01-27T08:44:59.130Z,13.03
2019-01-27T08:47:31.485Z,14.40
2019-01-27T08:50:03.696Z,15.10
2019-01-27T08:52:38.076Z,11.63
2019-01-27T08:55:12.134Z,11.22
2019-01-27T08:57:44.123Z,10.93
2019-01-27T09:00:23.761Z,11.00
2019-01-27T09:03:17.254Z,10.53
2019-01-27T09:06:11.419Z,10.00
2019-01-27T09:09:11.856Z,11.10
2019-01-27T09:12:04.034Z,15.37
2019-01-27T09:14:54.766Z,14.80
2019-01-27T09:17:46.435Z,10.37
2019-01-27T09:20:47.408Z,7.07
2019-01-27T09:23:35.137Z,7.40
2019-01-27T09:26:17.347Z,7.93
2019-01-27T09:29:08.064Z,8.93
2019-01-27T09:32:10.690Z,8.83
2019-01-27T09:34:54.573Z,7.53
2019-01-27T09:37:51.070Z,16.37
2019-01-27T09:40:39.379Z,8.10
2019-01-27T09:43:30.048Z,8.23
2019-01-27T09:46:17.338Z,9.50
2019-01-27T09:49:09.054Z,7.07
2019-01-27T09:52:00.178Z,9.30
2019-01-27T09:54:39.706Z,10.53
2019-01-27T09:57:29.603Z,11.43
2019-01-27T10:00:31.348Z,11.47
2019-01-27T10:03:25.372Z,10.30
2019-01-27T10:06:12.396Z,9.93
2019-01-27T10:09:06.831Z,8.57
2019-01-27T10:11:51.513Z,8.60
2019-01-27T10:14:42.071Z,8.10
2019-01-27T10:17:39.799Z,8.00
2019-01-27T10:20:33.781Z,8.07
2019-01-27T10:23:23.564Z,11.10
2019-01-27T10:26:17.325Z,13.33
2019-01-27T10:29:11.535Z,13.40
2019-01-27T10:32:17.864Z,9.67
2019-01-27T10:35:15.731Z,9.03
2019-01-27T10:37:53.616Z,9.27
2019-01-27T10:40:59.338Z,8.10
2019-01-27T10:43:45.016Z,8.93
2019-01-27T10:46:36.008Z,9.00
2019-01-27T10:49:33.981Z,7.47
2019-01-27T10:52:28.155Z,7.87
2019-01-27T10:55:25.719Z,8.20
2019-01-27T10:58:16.429Z,8.60
2019-01-27T11:01:05.762Z,7.53
2019-01-27T11:03:47.193Z,10.20
2019-01-27T11:06:35.753Z,8.70
2019-01-27T11:09:28.878Z,7.87
2019-01-27T11:12:32.136Z,9.57
2019-01-27T11:15:28.584Z,8.83
2019-01-27T11:18:26.415Z,9.33
2019-01-27T11:21:29.296Z,8.30
2019-01-27T11:24:17.645Z,8.07
2019-01-27T11:27:21.532Z,8.87
2019-01-27T11:30:02.788Z,9.17
2019-01-27T11:32:53.606Z,8.53
2019-01-27T11:35:45.016Z,8.80
2019-01-27T11:38:35.186Z,9.30
2019-01-27T11:41:39.340Z,8.33
2019-01-27T11:44:39.116Z,8.70
2019-01-27T11:47:21.745Z,8.70
2019-01-27T11:50:05.073Z,8.73
2019-01-27T11:52:39.988Z,7.53
2019-01-27T11:55:12.650Z,8.43
2019-01-27T11:57:44.847Z,7.70
2019-01-27T12:00:21.962Z,8.10
2019-01-27T12:02:54.137Z,8.00
2019-01-27T12:05:26.120Z,8.60
2019-01-27T12:07:58.348Z,9.13
2019-01-27T12:10:30.706Z,8.73
2019-01-27T12:13:02.870Z,7.83
2019-01-27T12:15:34.680Z,9.30
2019-01-27T12:18:06.733Z,10.10
2019-01-27T12:20:38.950Z,8.37
2019-01-27T12:23:15.600Z,8.60
2019-01-27T12:25:48.275Z,9.47
2019-01-27T12:28:20.672Z,10.43
2019-01-27T12:30:53.276Z,8.30
2019-01-27T12:33:25.516Z,8.20
2019-01-27T12:35:57.741Z,8.73
2019-01-27T12:38:29.864Z,9.13
2019-01-27T12:41:02.829Z,8.80
2019-01-27T12:43:34.850Z,10.60
2019-01-27T12:46:07.016Z,8.47
2019-01-27T12:48:39.571Z,8.80
2019-01-27T12:51:12.915Z,8.67
2019-01-27T12:53:44.737Z,10.10
2019-01-27T12:56:17.805Z,9.00
2019-01-27T12:58:49.779Z,8.53
2019-01-27T13:01:21.800Z,8.37
2019-01-27T13:03:53.563Z,8.03
2019-01-27T13:06:25.294Z,6.90
2019-01-27T13:08:58.906Z,6.50
2019-01-27T13:11:30.844Z,6.43
2019-01-27T13:14:05.199Z,6.03
2019-01-27T13:16:38.329Z,5.33
2019-01-27T13:19:10.649Z,5.37
2019-01-27T13:21:42.313Z,4.87
2019-01-27T13:24:15.401Z,4.60
2019-01-27T13:26:48.744Z,4.93
2019-01-27T13:29:20.562Z,4.13
2019-01-27T13:31:52.695Z,5.03
2019-01-27T13:34:24.465Z,5.73
2019-01-27T13:36:56.253Z,3.97
2019-01-27T13:39:28.503Z,4.20
2019-01-27T13:42:01.719Z,3.50
2019-01-27T13:44:35.252Z,3.50
2019-01-27T13:47:07.292Z,4.87
2019-01-27T13:49:39.101Z,3.70
2019-01-27T13:52:12.148Z,3.17
2019-01-27T13:54:44.998Z,3.60
2019-01-27T13:57:16.822Z,3.07
2019-01-27T13:59:48.737Z,2.83
2019-01-27T14:02:20.517Z,2.97
2019-01-27T14:04:52.467Z,3.03
2019-01-27T14:07:24.887Z,3.50
2019-01-27T14:09:56.619Z,3.03
2019-01-27T14:12:28.459Z,2.70
2019-01-27T14:15:00.551Z,2.50
2019-01-27T14:17:33.504Z,2.27
2019-01-27T14:20:08.561Z,2.10
2019-01-27T14:22:40.797Z,2.70
2019-01-27T14:25:15.082Z,3.03
2019-01-27T14:27:47.798Z,2.20
2019-01-27T14:30:26.532Z,4.37
2019-01-27T14:32:58.584Z,2.40
2019-01-27T14:35:31.667Z,3.03
2019-01-27T14:38:04.126Z,3.80
2019-01-27T14:40:36.620Z,3.33
2019-01-27T14:43:08.592Z,3.43
2019-01-27T14:45:40.945Z,4.37
2019-01-27T14:48:13.290Z,4.40
2019-01-27T14:50:48.898Z,4.07
2019-01-27T14:53:21.268Z,4.60
2019-01-27T14:55:53.535Z,5.20
2019-01-27T14:58:26.712Z,8.17
2019-01-27T15:00:58.711Z,4.63
2019-01-27T15:03:30.828Z,4.47
2019-01-27T15:06:03.679Z,6.43
2019-01-27T15:08:35.626Z,5.67
2019-01-27T15:11:08.188Z,6.00
2019-01-27T15:13:40.181Z,5.37
2019-01-27T15:16:12.502Z,4.73
2019-01-27T15:18:44.405Z,4.50
2019-01-27T15:21:28.596Z,4.67
2019-01-27T15:24:00.425Z,3.73
2019-01-27T15:26:32.526Z,4.13
2019-01-27T15:29:05.150Z,6.10
2019-01-27T15:31:39.436Z,5.30
2019-01-27T15:34:31.647Z,5.50
2019-01-27T15:37:03.610Z,5.73
2019-01-27T15:39:35.576Z,4.83
2019-01-27T15:42:08.329Z,7.23
2019-01-27T15:44:40.721Z,6.30
2019-01-27T15:47:12.567Z,6.30
2019-01-27T15:49:44.678Z,6.60
2019-01-27T15:52:16.695Z,6.50
2019-01-27T15:54:48.718Z,7.57
2019-01-27T15:57:20.662Z,6.93
2019-01-27T15:59:52.619Z,8.17
2019-01-27T16:02:29.199Z,8.10
2019-01-27T16:05:02.737Z,7.50
2019-01-27T16:07:34.703Z,7.53
2019-01-27T16:10:10.076Z,15.57
2019-01-27T16:12:42.439Z,8.50
2019-01-27T16:15:19.043Z,9.43
2019-01-27T16:17:51.130Z,9.60
2019-01-27T16:20:24.249Z,15.07
2019-01-27T16:23:17.178Z,17.40
2019-01-27T16:25:49.071Z,13.73
2019-01-27T16:28:21.969Z,12.13
2019-01-27T16:31:08.063Z,10.97
2019-01-27T16:34:09.384Z,14.23
2019-01-27T16:36:42.301Z,12.00
2019-01-27T16:39:15.760Z,12.50
2019-01-27T16:41:48.950Z,15.43
2019-01-27T16:44:22.552Z,17.40
2019-01-27T16:46:54.521Z,12.80
2019-01-27T16:49:27.261Z,22.40
2019-01-27T16:52:02.855Z,14.67
2019-01-27T16:54:34.650Z,36.13
2019-01-27T16:57:07.038Z,23.93
2019-01-27T16:59:39.276Z,15.60
2019-01-27T17:02:12.049Z,9.53
2019-01-27T17:04:44.247Z,12.70
2019-01-27T17:07:16.141Z,13.13
2019-01-27T17:09:49.498Z,10.40
2019-01-27T17:12:21.446Z,10.70
2019-01-27T17:14:53.423Z,10.13
2019-01-27T17:17:25.477Z,17.37
2019-01-27T17:20:02.491Z,10.90
2019-01-27T17:22:32.444Z,14.93
2019-01-27T17:25:04.890Z,10.33
2019-01-27T17:27:37.362Z,12.17
2019-01-27T17:30:13.584Z,16.47
2019-01-27T17:32:47.104Z,18.67
2019-01-27T17:35:20.123Z,17.57
2019-01-27T17:37:54.855Z,15.27
2019-01-27T17:40:27.113Z,15.27
2019-01-27T17:43:00.356Z,17.87
2019-01-27T17:45:32.995Z,15.90
2019-01-27T17:48:05.715Z,14.37
2019-01-27T17:50:39.951Z,13.83
2019-01-27T17:53:12.439Z,12.33
2019-01-27T17:55:45.494Z,10.90
2019-01-27T17:59:11.187Z,12.63
2019-01-27T18:01:54.055Z,11.17
2019-01-27T18:04:58.139Z,12.10
2019-01-27T18:07:53.529Z,10.53
2019-01-27T18:10:49.160Z,10.37
2019-01-27T18:13:25.877Z,10.73
2019-01-27T18:16:00.198Z,8.93
2019-01-27T18:18:32.577Z,10.27
2019-01-27T18:21:04.554Z,8.03
2019-01-27T18:23:36.844Z,8.53
2019-01-27T18:26:09.724Z,8.80
2019-01-27T18:28:41.967Z,9.03
2019-01-27T18:31:14.618Z,9.23
2019-01-27T18:33:47.781Z,9.97
2019-01-27T18:36:20.008Z,11.23
2019-01-27T18:38:52.096Z,9.93
2019-01-27T18:41:24.422Z,9.50
2019-01-27T18:43:56.582Z,9.57
2019-01-27T18:46:28.670Z,9.10
2019-01-27T18:49:01.059Z,8.63
2019-01-27T18:51:34.985Z,9.93
2019-01-27T18:54:32.305Z,8.57
2019-01-27T18:57:18.703Z,9.17
2019-01-27T19:00:18.791Z,9.23
2019-01-27T19:03:14.533Z,8.47
2019-01-27T19:06:03.844Z,9.23
2019-01-27T19:08:57.515Z,10.57
2019-01-27T19:11:50.176Z,8.00
2019-01-27T19:14:59.188Z,9.83
2019-01-27T19:17:50.786Z,8.37
2019-01-27T19:20:44.453Z,9.67
2019-01-27T19:23:25.398Z,10.10
2019-01-27T19:26:26.150Z,10.00
2019-01-27T19:29:28.756Z,13.97
2019-01-27T19:32:17.903Z,10.50
2019-01-27T19:35:07.678Z,12.03
2019-01-27T19:38:10.515Z,7.87
2019-01-27T19:41:03.583Z,7.17
2019-01-27T19:43:51.055Z,10.73
2019-01-27T19:46:40.866Z,8.60
2019-01-27T19:49:41.484Z,9.90
2019-01-27T19:52:43.563Z,7.10
2019-01-27T19:55:53.118Z,6.37
2019-01-27T19:58:39.676Z,6.97
2019-01-27T20:01:27.190Z,6.97
2019-01-27T20:04:16.480Z,6.50
2019-01-27T20:07:10.006Z,7.07
2019-01-27T20:10:05.018Z,6.13
2019-01-27T20:12:44.460Z,6.73
2019-01-27T20:15:28.711Z,6.10
2019-01-27T20:18:20.218Z,7.60
2019-01-27T20:20:59.823Z,7.00
2019-01-27T20:23:51.991Z,5.10
2019-01-27T20:26:33.546Z,6.43
2019-01-27T20:29:43.894Z,6.07
2019-01-27T20:32:34.917Z,5.53
2019-01-27T20:35:22.289Z,5.83
2019-01-27T20:38:16.134Z,5.87
2019-01-27T20:41:13.079Z,4.83
2019-01-27T20:44:16.143Z,5.50
2019-01-27T20:47:09.911Z,5.97
2019-01-27T20:50:10.719Z,5.47
2019-01-27T20:52:53.320Z,5.57
2019-01-27T20:55:34.424Z,6.50
2019-01-27T20:58:15.554Z,5.97
2019-01-27T21:01:09.046Z,5.73
2019-01-27T21:04:04.650Z,5.63
2019-01-27T21:06:54.869Z,4.40
2019-01-27T21:09:37.702Z,4.93
2019-01-27T21:12:22.845Z,4.57
2019-01-27T21:15:20.890Z,4.33
2019-01-27T21:18:11.518Z,4.00
2019-01-27T21:20:43.720Z,4.07
2019-01-27T21:23:19.399Z,4.63
2019-01-27T21:25:51.525Z,5.00
2019-01-27T21:28:24.416Z,4.03
2019-01-27T21:30:56.506Z,4.60
2019-01-27T21:33:28.866Z,4.30
2019-01-27T21:36:02.286Z,5.40
2019-01-27T21:38:35.074Z,5.67
2019-01-27T21:41:07.920Z,6.10
2019-01-27T21:43:40.779Z,4.93
2019-01-27T21:46:13.655Z,5.40
2019-01-27T21:48:45.991Z,5.00
2019-01-27T21:51:19.176Z,6.03
2019-01-27T21:53:52.345Z,4.53
2019-01-27T21:56:24.025Z,5.20
2019-01-27T21:58:56.482Z,5.00
2019-01-27T22:01:29.679Z,4.97
2019-01-27T22:04:01.904Z,5.10
2019-01-27T22:06:34.155Z,6.03
2019-01-27T22:09:08.817Z,5.50
2019-01-27T22:11:40.669Z,4.93
2019-01-27T22:14:15.622Z,6.13
2019-01-27T22:16:47.579Z,6.27
2019-01-27T22:19:19.954Z,5.30
2019-01-27T22:21:51.967Z,4.93
2019-01-27T22:24:24.217Z,7.80
2019-01-27T22:26:56.156Z,4.47
2019-01-27T22:29:28.036Z,5.00
2019-01-27T22:32:00.413Z,5.70
2019-01-27T22:34:34.616Z,5.30
2019-01-27T22:37:06.917Z,4.93
2019-01-27T22:39:39.335Z,5.27
2019-01-27T22:42:11.842Z,4.93
2019-01-27T22:44:43.746Z,5.27
2019-01-27T22:47:15.990Z,5.60
2019-01-27T22:49:48.606Z,5.17
2019-01-27T22:52:21.271Z,5.17
2019-01-27T22:54:54.277Z,4.43
2019-01-27T22:57:26.533Z,4.87
2019-01-27T23:00:03.445Z,5.47
2019-01-27T23:02:36.344Z,4.83
2019-01-27T23:05:09.861Z,5.47
2019-01-27T23:07:43.847Z,5.00
2019-01-27T23:10:16.930Z,4.80
2019-01-27T23:12:48.797Z,5.63
2019-01-27T23:15:21.437Z,5.67
2019-01-27T23:17:53.770Z,6.33
2019-01-27T23:20:26.801Z,4.50
2019-01-27T23:23:00.503Z,4.43
2019-01-27T23:25:35.334Z,4.20
2019-01-27T23:28:07.666Z,3.97
2019-01-27T23:30:41.256Z,4.27
2019-01-27T23:33:13.728Z,4.10
2019-01-27T23:35:46.941Z,5.53
2019-01-27T23:38:19.213Z,4.47
2019-01-27T23:40:52.371Z,4.50
2019-01-27T23:43:24.702Z,4.10
2019-01-27T23:46:00.671Z,4.10
2019-01-27T23:48:33.274Z,3.87
2019-01-27T23:51:09.788Z,4.30
2019-01-27T23:53:42.468Z,4.10
2019-01-27T23:56:15.355Z,4.23
2019-01-27T23:58:47.594Z,4.30
